sensor_id;sensor_type;location;lat;lon;timestamp;temperature;humidity
14670;DHT22;7423;48.722;9.350;2022-08-21T00:00:15;20.60;99.90
14670;DHT22;7423;48.722;9.350;2022-08-21T00:02:56;20.60;99.90
14670;DHT22;7423;48.722;9.350;2022-08-21T00:05:35;20.50;99.90
14670;DHT22;7423;48.722;9.350;2022-08-21T00:08:04;20.60;99.90
14670;DHT22;7423;48.722;9.350;2022-08-21T00:10:31;20.50;99.90
14670;DHT22;7423;48.722;9.350;2022-08-21T00:13:01;20.50;99.90
14670;DHT22;7423;48.722;9.350;2022-08-21T00:15:32;20.50;99.90
14670;DHT22;7423;48.722;9.350;2022-08-21T00:18:00;20.50;99.90
14670;DHT22;7423;48.722;9.350;2022-08-21T00:20:27;20.50;99.90
14670;DHT22;7423;48.722;9.350;2022-08-21T00:22:54;20.40;99.90
14670;DHT22;7423;48.722;9.350;2022-08-21T00:25:23;20.40;99.90
14670;DHT22;7423;48.722;9.350;2022-08-21T00:27:52;20.40;99.90
14670;DHT22;7423;48.722;9.350;2022-08-21T00:30:22;20.30;99.90
14670;DHT22;7423;48.722;9.350;2022-08-21T00:32:51;20.30;99.90
14670;DHT22;7423;48.722;9.350;2022-08-21T00:35:22;20.20;99.90
14670;DHT22;7423;48.722;9.350;2022-08-21T00:37:51;20.20;99.90
14670;DHT22;7423;48.722;9.350;2022-08-21T00:40:25;20.20;99.90
14670;DHT22;7423;48.722;9.350;2022-08-21T00:42:54;20.20;99.90
14670;DHT22;7423;48.722;9.350;2022-08-21T00:45:22;20.10;99.90
14670;DHT22;7423;48.722;9.350;2022-08-21T00:47:51;20.10;99.90
14670;DHT22;7423;48.722;9.350;2022-08-21T00:50:19;20.10;99.90
14670;DHT22;7423;48.722;9.350;2022-08-21T00:52:49;20.10;99.90
14670;DHT22;7423;48.722;9.350;2022-08-21T00:55:19;20.10;99.90
14670;DHT22;7423;48.722;9.350;2022-08-21T00:57:51;20.00;99.90
14670;DHT22;7423;48.722;9.350;2022-08-21T01:00:29;20.00;99.90
14670;DHT22;7423;48.722;9.350;2022-08-21T01:02:59;20.00;99.90
14670;DHT22;7423;48.722;9.350;2022-08-21T01:05:33;20.00;99.90
14670;DHT22;7423;48.722;9.350;2022-08-21T01:08:00;20.00;99.90
14670;DHT22;7423;48.722;9.350;2022-08-21T01:10:27;20.00;99.90
14670;DHT22;7423;48.722;9.350;2022-08-21T01:12:56;20.00;99.90
14670;DHT22;7423;48.722;9.350;2022-08-21T01:15:29;19.90;99.90
14670;DHT22;7423;48.722;9.350;2022-08-21T01:17:57;19.90;99.90
14670;DHT22;7423;48.722;9.350;2022-08-21T01:20:26;20.00;99.90
14670;DHT22;7423;48.722;9.350;2022-08-21T01:22:59;19.90;99.90
14670;DHT22;7423;48.722;9.350;2022-08-21T01:25:26;19.80;99.90
14670;DHT22;7423;48.722;9.350;2022-08-21T01:27:54;19.80;99.90
14670;DHT22;7423;48.722;9.350;2022-08-21T01:30:26;19.70;99.90
14670;DHT22;7423;48.722;9.350;2022-08-21T01:32:54;19.70;99.90
14670;DHT22;7423;48.722;9.350;2022-08-21T01:35:22;19.70;99.90
14670;DHT22;7423;48.722;9.350;2022-08-21T01:37:49;19.70;99.90
14670;DHT22;7423;48.722;9.350;2022-08-21T01:40:17;19.70;99.90
14670;DHT22;7423;48.722;9.350;2022-08-21T01:42:45;19.60;99.90
14670;DHT22;7423;48.722;9.350;2022-08-21T01:45:13;19.50;99.90
14670;DHT22;7423;48.722;9.350;2022-08-21T01:47:43;19.50;99.90
14670;DHT22;7423;48.722;9.350;2022-08-21T01:50:13;19.30;99.90
14670;DHT22;7423;48.722;9.350;2022-08-21T01:52:44;19.50;99.90
14670;DHT22;7423;48.722;9.350;2022-08-21T01:55:16;19.50;99.90
14670;DHT22;7423;48.722;9.350;2022-08-21T01:57:45;19.50;99.90
14670;DHT22;7423;48.722;9.350;2022-08-21T02:00:15;19.50;99.90
14670;DHT22;7423;48.722;9.350;2022-08-21T02:02:43;20.30;99.90
14670;DHT22;7423;48.722;9.350;2022-08-21T02:05:11;19.50;99.90
14670;DHT22;7423;48.722;9.350;2022-08-21T02:07:41;19.40;99.90
14670;DHT22;7423;48.722;9.350;2022-08-21T02:10:14;19.40;99.90
14670;DHT22;7423;48.722;9.350;2022-08-21T02:12:45;19.50;99.90
14670;DHT22;7423;48.722;9.350;2022-08-21T02:15:12;19.50;99.90
14670;DHT22;7423;48.722;9.350;2022-08-21T02:17:44;19.40;99.90
14670;DHT22;7423;48.722;9.350;2022-08-21T02:20:35;19.40;99.90
14670;DHT22;7423;48.722;9.350;2022-08-21T02:23:05;19.40;99.90
14670;DHT22;7423;48.722;9.350;2022-08-21T02:25:33;19.30;99.90
14670;DHT22;7423;48.722;9.350;2022-08-21T02:28:04;19.30;99.90
14670;DHT22;7423;48.722;9.350;2022-08-21T02:30:36;19.30;99.90
14670;DHT22;7423;48.722;9.350;2022-08-21T02:33:06;19.30;99.90
14670;DHT22;7423;48.722;9.350;2022-08-21T02:35:34;19.20;99.90
14670;DHT22;7423;48.722;9.350;2022-08-21T02:38:04;19.20;99.90
14670;DHT22;7423;48.722;9.350;2022-08-21T02:40:40;19.10;99.90
14670;DHT22;7423;48.722;9.350;2022-08-21T02:43:14;19.10;99.90
14670;DHT22;7423;48.722;9.350;2022-08-21T02:45:43;19.10;99.90
14670;DHT22;7423;48.722;9.350;2022-08-21T02:48:14;19.10;99.90
14670;DHT22;7423;48.722;9.350;2022-08-21T02:50:46;19.10;99.90
14670;DHT22;7423;48.722;9.350;2022-08-21T02:53:16;19.10;99.90
14670;DHT22;7423;48.722;9.350;2022-08-21T02:55:45;19.10;99.90
14670;DHT22;7423;48.722;9.350;2022-08-21T02:58:16;19.10;99.90
14670;DHT22;7423;48.722;9.350;2022-08-21T03:00:44;19.10;99.90
14670;DHT22;7423;48.722;9.350;2022-08-21T03:03:11;19.10;99.90
14670;DHT22;7423;48.722;9.350;2022-08-21T03:05:42;19.10;99.90
14670;DHT22;7423;48.722;9.350;2022-08-21T03:08:11;19.10;99.90
14670;DHT22;7423;48.722;9.350;2022-08-21T03:10:42;19.10;99.90
14670;DHT22;7423;48.722;9.350;2022-08-21T03:13:11;19.10;99.90
14670;DHT22;7423;48.722;9.350;2022-08-21T03:15:39;19.10;99.90
14670;DHT22;7423;48.722;9.350;2022-08-21T03:18:07;19.10;99.90
14670;DHT22;7423;48.722;9.350;2022-08-21T03:20:37;19.00;99.90
14670;DHT22;7423;48.722;9.350;2022-08-21T03:23:05;19.00;99.90
14670;DHT22;7423;48.722;9.350;2022-08-21T03:25:39;19.00;99.90
14670;DHT22;7423;48.722;9.350;2022-08-21T03:28:10;18.90;99.90
14670;DHT22;7423;48.722;9.350;2022-08-21T03:30:45;18.90;99.90
14670;DHT22;7423;48.722;9.350;2022-08-21T03:33:13;18.90;99.90
14670;DHT22;7423;48.722;9.350;2022-08-21T03:35:43;18.90;99.90
14670;DHT22;7423;48.722;9.350;2022-08-21T03:38:11;18.90;99.90
14670;DHT22;7423;48.722;9.350;2022-08-21T03:40:43;18.90;99.90
14670;DHT22;7423;48.722;9.350;2022-08-21T03:43:10;18.80;99.90
14670;DHT22;7423;48.722;9.350;2022-08-21T03:45:38;18.80;99.90
14670;DHT22;7423;48.722;9.350;2022-08-21T03:48:07;18.80;99.90
14670;DHT22;7423;48.722;9.350;2022-08-21T03:50:38;18.80;99.90
14670;DHT22;7423;48.722;9.350;2022-08-21T03:53:11;18.80;99.90
14670;DHT22;7423;48.722;9.350;2022-08-21T03:55:47;18.80;99.90
14670;DHT22;7423;48.722;9.350;2022-08-21T03:58:16;18.80;99.90
14670;DHT22;7423;48.722;9.350;2022-08-21T04:00:46;18.80;99.90
14670;DHT22;7423;48.722;9.350;2022-08-21T04:03:14;18.70;99.90
14670;DHT22;7423;48.722;9.350;2022-08-21T04:05:42;18.70;99.90
14670;DHT22;7423;48.722;9.350;2022-08-21T04:08:09;18.70;99.90
14670;DHT22;7423;48.722;9.350;2022-08-21T04:10:38;18.70;99.90
14670;DHT22;7423;48.722;9.350;2022-08-21T04:13:07;18.70;99.90
14670;DHT22;7423;48.722;9.350;2022-08-21T04:15:34;18.60;99.90
14670;DHT22;7423;48.722;9.350;2022-08-21T04:18:01;18.60;99.90
14670;DHT22;7423;48.722;9.350;2022-08-21T04:20:29;18.60;99.90
14670;DHT22;7423;48.722;9.350;2022-08-21T04:22:56;18.60;99.90
14670;DHT22;7423;48.722;9.350;2022-08-21T04:25:24;18.70;99.90
14670;DHT22;7423;48.722;9.350;2022-08-21T04:27:52;18.60;99.90
14670;DHT22;7423;48.722;9.350;2022-08-21T04:30:20;18.60;99.90
14670;DHT22;7423;48.722;9.350;2022-08-21T04:32:55;18.60;99.90
14670;DHT22;7423;48.722;9.350;2022-08-21T04:35:25;18.60;99.90
14670;DHT22;7423;48.722;9.350;2022-08-21T04:37:53;18.60;99.90
14670;DHT22;7423;48.722;9.350;2022-08-21T04:40:24;18.60;99.90
14670;DHT22;7423;48.722;9.350;2022-08-21T04:42:56;18.60;99.90
14670;DHT22;7423;48.722;9.350;2022-08-21T04:45:30;18.60;99.90
14670;DHT22;7423;48.722;9.350;2022-08-21T04:48:00;18.50;99.90
14670;DHT22;7423;48.722;9.350;2022-08-21T04:50:34;18.50;99.90
14670;DHT22;7423;48.722;9.350;2022-08-21T04:53:05;18.50;99.90
14670;DHT22;7423;48.722;9.350;2022-08-21T04:55:34;18.50;99.90
14670;DHT22;7423;48.722;9.350;2022-08-21T04:58:01;18.50;99.90
14670;DHT22;7423;48.722;9.350;2022-08-21T05:00:28;18.50;99.90
14670;DHT22;7423;48.722;9.350;2022-08-21T05:02:57;18.40;99.90
14670;DHT22;7423;48.722;9.350;2022-08-21T05:05:28;18.40;99.90
14670;DHT22;7423;48.722;9.350;2022-08-21T05:07:59;18.40;99.90
14670;DHT22;7423;48.722;9.350;2022-08-21T05:10:26;18.40;99.90
14670;DHT22;7423;48.722;9.350;2022-08-21T05:12:54;18.40;99.90
14670;DHT22;7423;48.722;9.350;2022-08-21T05:15:21;18.50;99.90
14670;DHT22;7423;48.722;9.350;2022-08-21T05:17:48;18.40;99.90
14670;DHT22;7423;48.722;9.350;2022-08-21T05:20:26;18.40;99.90
14670;DHT22;7423;48.722;9.350;2022-08-21T05:22:53;18.40;99.90
14670;DHT22;7423;48.722;9.350;2022-08-21T05:25:21;18.40;99.90
14670;DHT22;7423;48.722;9.350;2022-08-21T05:27:49;18.50;99.90
14670;DHT22;7423;48.722;9.350;2022-08-21T05:30:18;18.50;99.90
14670;DHT22;7423;48.722;9.350;2022-08-21T05:32:46;18.50;99.90
14670;DHT22;7423;48.722;9.350;2022-08-21T05:35:14;18.60;99.90
14670;DHT22;7423;48.722;9.350;2022-08-21T05:37:41;18.60;99.90
14670;DHT22;7423;48.722;9.350;2022-08-21T05:40:08;18.60;99.90
14670;DHT22;7423;48.722;9.350;2022-08-21T05:42:52;18.70;99.90
14670;DHT22;7423;48.722;9.350;2022-08-21T05:45:29;18.60;99.90
14670;DHT22;7423;48.722;9.350;2022-08-21T05:48:12;18.60;99.90
14670;DHT22;7423;48.722;9.350;2022-08-21T05:50:39;18.70;99.90
14670;DHT22;7423;48.722;9.350;2022-08-21T05:53:07;18.70;99.90
14670;DHT22;7423;48.722;9.350;2022-08-21T05:55:36;18.80;99.90
14670;DHT22;7423;48.722;9.350;2022-08-21T05:58:11;18.80;99.90
14670;DHT22;7423;48.722;9.350;2022-08-21T06:00:38;18.80;99.90
14670;DHT22;7423;48.722;9.350;2022-08-21T06:03:11;18.80;99.90
14670;DHT22;7423;48.722;9.350;2022-08-21T06:05:39;18.80;99.90
14670;DHT22;7423;48.722;9.350;2022-08-21T06:08:06;18.90;99.90
14670;DHT22;7423;48.722;9.350;2022-08-21T06:10:32;18.90;99.90
14670;DHT22;7423;48.722;9.350;2022-08-21T06:12:59;19.00;99.90
14670;DHT22;7423;48.722;9.350;2022-08-21T06:15:27;19.00;99.90
14670;DHT22;7423;48.722;9.350;2022-08-21T06:17:54;18.90;99.90
14670;DHT22;7423;48.722;9.350;2022-08-21T06:20:21;19.00;99.90
14670;DHT22;7423;48.722;9.350;2022-08-21T06:22:49;19.00;99.90
14670;DHT22;7423;48.722;9.350;2022-08-21T06:25:16;19.10;99.90
14670;DHT22;7423;48.722;9.350;2022-08-21T06:27:43;19.20;99.90
14670;DHT22;7423;48.722;9.350;2022-08-21T06:30:10;19.20;99.90
14670;DHT22;7423;48.722;9.350;2022-08-21T06:32:37;19.20;99.90
14670;DHT22;7423;48.722;9.350;2022-08-21T06:35:05;19.30;99.90
14670;DHT22;7423;48.722;9.350;2022-08-21T06:37:33;19.30;99.90
14670;DHT22;7423;48.722;9.350;2022-08-21T06:40:00;19.30;99.90
14670;DHT22;7423;48.722;9.350;2022-08-21T06:42:27;19.30;99.90
14670;DHT22;7423;48.722;9.350;2022-08-21T06:44:56;19.40;99.90
14670;DHT22;7423;48.722;9.350;2022-08-21T06:47:23;19.50;99.90
14670;DHT22;7423;48.722;9.350;2022-08-21T06:49:50;19.50;99.90
14670;DHT22;7423;48.722;9.350;2022-08-21T06:52:17;19.50;99.90
14670;DHT22;7423;48.722;9.350;2022-08-21T06:54:44;19.50;99.90
14670;DHT22;7423;48.722;9.350;2022-08-21T06:57:11;19.40;99.90
14670;DHT22;7423;48.722;9.350;2022-08-21T06:59:38;19.50;99.90
14670;DHT22;7423;48.722;9.350;2022-08-21T07:02:05;19.50;99.90
14670;DHT22;7423;48.722;9.350;2022-08-21T07:04:32;19.60;99.90
14670;DHT22;7423;48.722;9.350;2022-08-21T07:06:59;19.60;99.90
14670;DHT22;7423;48.722;9.350;2022-08-21T07:09:26;19.60;99.90
14670;DHT22;7423;48.722;9.350;2022-08-21T07:11:54;19.80;99.90
14670;DHT22;7423;48.722;9.350;2022-08-21T07:14:22;19.70;99.90
14670;DHT22;7423;48.722;9.350;2022-08-21T07:16:49;19.80;99.90
14670;DHT22;7423;48.722;9.350;2022-08-21T07:19:17;19.80;99.90
14670;DHT22;7423;48.722;9.350;2022-08-21T07:21:44;19.90;99.90
14670;DHT22;7423;48.722;9.350;2022-08-21T07:24:11;19.90;99.90
14670;DHT22;7423;48.722;9.350;2022-08-21T07:26:39;19.90;99.90
14670;DHT22;7423;48.722;9.350;2022-08-21T07:29:06;20.00;99.90
14670;DHT22;7423;48.722;9.350;2022-08-21T07:31:33;19.90;99.90
14670;DHT22;7423;48.722;9.350;2022-08-21T07:34:00;20.00;99.90
14670;DHT22;7423;48.722;9.350;2022-08-21T07:36:27;20.00;99.90
14670;DHT22;7423;48.722;9.350;2022-08-21T07:38:54;20.00;99.90
14670;DHT22;7423;48.722;9.350;2022-08-21T07:41:24;20.10;99.90
14670;DHT22;7423;48.722;9.350;2022-08-21T07:43:52;20.10;99.90
14670;DHT22;7423;48.722;9.350;2022-08-21T07:46:20;20.00;99.90
14670;DHT22;7423;48.722;9.350;2022-08-21T07:48:47;20.10;99.90
14670;DHT22;7423;48.722;9.350;2022-08-21T07:51:15;20.20;99.90
14670;DHT22;7423;48.722;9.350;2022-08-21T07:53:51;20.10;99.90
14670;DHT22;7423;48.722;9.350;2022-08-21T07:56:19;20.30;99.90
14670;DHT22;7423;48.722;9.350;2022-08-21T07:58:46;20.30;99.90
14670;DHT22;7423;48.722;9.350;2022-08-21T08:01:14;20.30;99.90
14670;DHT22;7423;48.722;9.350;2022-08-21T08:03:41;20.30;99.90
14670;DHT22;7423;48.722;9.350;2022-08-21T08:06:08;20.30;99.90
14670;DHT22;7423;48.722;9.350;2022-08-21T08:08:39;20.40;99.90
14670;DHT22;7423;48.722;9.350;2022-08-21T08:11:08;20.40;99.90
14670;DHT22;7423;48.722;9.350;2022-08-21T08:13:43;20.40;99.90
14670;DHT22;7423;48.722;9.350;2022-08-21T08:16:15;20.40;99.90
14670;DHT22;7423;48.722;9.350;2022-08-21T08:18:42;20.40;99.90
14670;DHT22;7423;48.722;9.350;2022-08-21T08:21:10;20.40;99.90
14670;DHT22;7423;48.722;9.350;2022-08-21T08:23:37;20.50;99.90
14670;DHT22;7423;48.722;9.350;2022-08-21T08:26:05;20.50;99.90
14670;DHT22;7423;48.722;9.350;2022-08-21T08:28:33;20.50;99.90
14670;DHT22;7423;48.722;9.350;2022-08-21T08:31:00;20.60;99.90
14670;DHT22;7423;48.722;9.350;2022-08-21T08:33:27;20.70;99.90
14670;DHT22;7423;48.722;9.350;2022-08-21T08:35:54;20.70;99.90
14670;DHT22;7423;48.722;9.350;2022-08-21T08:38:23;20.70;99.90
14670;DHT22;7423;48.722;9.350;2022-08-21T08:43:28;20.80;99.90
14670;DHT22;7423;48.722;9.350;2022-08-21T08:45:57;20.80;99.90
14670;DHT22;7423;48.722;9.350;2022-08-21T08:51:53;20.90;99.90
14670;DHT22;7423;48.722;9.350;2022-08-21T08:54:45;20.90;99.90
14670;DHT22;7423;48.722;9.350;2022-08-21T08:57:20;21.00;99.90
14670;DHT22;7423;48.722;9.350;2022-08-21T08:59:56;21.10;99.90
14670;DHT22;7423;48.722;9.350;2022-08-21T09:02:25;21.20;99.90
14670;DHT22;7423;48.722;9.350;2022-08-21T09:04:55;21.20;99.90
14670;DHT22;7423;48.722;9.350;2022-08-21T09:10:21;21.30;99.90
14670;DHT22;7423;48.722;9.350;2022-08-21T09:22:39;21.60;99.90
14670;DHT22;7423;48.722;9.350;2022-08-21T09:25:24;21.80;99.90
14670;DHT22;7423;48.722;9.350;2022-08-21T09:27:53;21.90;99.90
14670;DHT22;7423;48.722;9.350;2022-08-21T09:30:28;22.00;99.90
14670;DHT22;7423;48.722;9.350;2022-08-21T09:32:57;22.10;99.90
14670;DHT22;7423;48.722;9.350;2022-08-21T09:35:25;22.10;99.90
14670;DHT22;7423;48.722;9.350;2022-08-21T09:37:59;22.40;99.90
14670;DHT22;7423;48.722;9.350;2022-08-21T09:40:36;22.30;99.90
14670;DHT22;7423;48.722;9.350;2022-08-21T09:45:40;22.40;99.90
14670;DHT22;7423;48.722;9.350;2022-08-21T09:48:11;22.40;99.90
14670;DHT22;7423;48.722;9.350;2022-08-21T09:50:40;22.40;99.90
14670;DHT22;7423;48.722;9.350;2022-08-21T09:53:20;22.50;99.90
14670;DHT22;7423;48.722;9.350;2022-08-21T09:55:56;22.60;99.90
14670;DHT22;7423;48.722;9.350;2022-08-21T09:58:49;22.70;99.90
14670;DHT22;7423;48.722;9.350;2022-08-21T10:01:19;22.80;99.90
14670;DHT22;7423;48.722;9.350;2022-08-21T10:04:22;22.90;99.90
14670;DHT22;7423;48.722;9.350;2022-08-21T10:07:11;23.10;99.90
14670;DHT22;7423;48.722;9.350;2022-08-21T10:09:41;23.20;99.90
14670;DHT22;7423;48.722;9.350;2022-08-21T10:12:18;23.20;99.90
14670;DHT22;7423;48.722;9.350;2022-08-21T10:15:01;23.20;99.90
14670;DHT22;7423;48.722;9.350;2022-08-21T10:20:45;23.60;99.90
14670;DHT22;7423;48.722;9.350;2022-08-21T10:29:46;23.90;99.90
14670;DHT22;7423;48.722;9.350;2022-08-21T10:38:17;24.30;99.90
14670;DHT22;7423;48.722;9.350;2022-08-21T10:44:17;24.30;99.90
14670;DHT22;7423;48.722;9.350;2022-08-21T10:47:36;24.40;99.90
14670;DHT22;7423;48.722;9.350;2022-08-21T10:53:29;24.70;99.90
14670;DHT22;7423;48.722;9.350;2022-08-21T10:56:19;24.80;99.90
14670;DHT22;7423;48.722;9.350;2022-08-21T10:59:28;24.70;99.90
14670;DHT22;7423;48.722;9.350;2022-08-21T11:02:17;24.70;99.90
14670;DHT22;7423;48.722;9.350;2022-08-21T11:05:10;24.80;99.90
14670;DHT22;7423;48.722;9.350;2022-08-21T11:08:15;24.80;99.90
14670;DHT22;7423;48.722;9.350;2022-08-21T11:11:01;24.90;99.90
14670;DHT22;7423;48.722;9.350;2022-08-21T11:13:45;25.00;99.90
14670;DHT22;7423;48.722;9.350;2022-08-21T11:16:26;25.00;99.90
14670;DHT22;7423;48.722;9.350;2022-08-21T11:19:22;25.00;99.90
14670;DHT22;7423;48.722;9.350;2022-08-21T11:22:23;25.10;99.90
14670;DHT22;7423;48.722;9.350;2022-08-21T11:27:41;25.70;99.90
14670;DHT22;7423;48.722;9.350;2022-08-21T11:30:11;25.90;99.90
14670;DHT22;7423;48.722;9.350;2022-08-21T11:33:05;26.00;99.90
14670;DHT22;7423;48.722;9.350;2022-08-21T11:36:02;25.90;99.90
14670;DHT22;7423;48.722;9.350;2022-08-21T11:38:41;26.20;99.90
14670;DHT22;7423;48.722;9.350;2022-08-21T11:41:19;26.50;99.90
14670;DHT22;7423;48.722;9.350;2022-08-21T11:46:53;27.20;99.90
14670;DHT22;7423;48.722;9.350;2022-08-21T11:52:36;29.00;94.70
14670;DHT22;7423;48.722;9.350;2022-08-21T11:55:19;29.30;93.60
14670;DHT22;7423;48.722;9.350;2022-08-21T11:58:02;30.00;94.10
14670;DHT22;7423;48.722;9.350;2022-08-21T12:00:56;30.40;93.80
14670;DHT22;7423;48.722;9.350;2022-08-21T12:03:31;30.80;92.30
14670;DHT22;7423;48.722;9.350;2022-08-21T12:06:13;30.60;92.60
14670;DHT22;7423;48.722;9.350;2022-08-21T12:09:01;30.50;92.20
14670;DHT22;7423;48.722;9.350;2022-08-21T12:11:30;30.10;92.70
14670;DHT22;7423;48.722;9.350;2022-08-21T12:16:46;29.20;93.80
14670;DHT22;7423;48.722;9.350;2022-08-21T12:19:29;28.80;93.30
14670;DHT22;7423;48.722;9.350;2022-08-21T12:26:54;28.20;93.60
14670;DHT22;7423;48.722;9.350;2022-08-21T12:29:31;28.10;92.30
14670;DHT22;7423;48.722;9.350;2022-08-21T12:34:38;27.90;93.60
14670;DHT22;7423;48.722;9.350;2022-08-21T12:37:39;27.70;93.90
14670;DHT22;7423;48.722;9.350;2022-08-21T12:40:18;27.50;93.90
14670;DHT22;7423;48.722;9.350;2022-08-21T12:42:52;27.50;93.20
14670;DHT22;7423;48.722;9.350;2022-08-21T12:45:33;27.50;93.60
14670;DHT22;7423;48.722;9.350;2022-08-21T12:50:54;27.50;91.90
14670;DHT22;7423;48.722;9.350;2022-08-21T12:53:30;27.40;93.00
14670;DHT22;7423;48.722;9.350;2022-08-21T12:56:08;27.30;92.20
14670;DHT22;7423;48.722;9.350;2022-08-21T12:58:40;27.30;92.40
14670;DHT22;7423;48.722;9.350;2022-08-21T13:01:27;27.20;92.40
14670;DHT22;7423;48.722;9.350;2022-08-21T13:04:18;27.10;92.00
14670;DHT22;7423;48.722;9.350;2022-08-21T13:06:50;27.10;91.90
14670;DHT22;7423;48.722;9.350;2022-08-21T13:09:23;27.00;91.20
14670;DHT22;7423;48.722;9.350;2022-08-21T13:11:53;27.00;91.00
14670;DHT22;7423;48.722;9.350;2022-08-21T13:14:30;27.00;81.80
14670;DHT22;7423;48.722;9.350;2022-08-21T13:17:11;27.30;73.90
14670;DHT22;7423;48.722;9.350;2022-08-21T13:20:00;27.40;79.40
14670;DHT22;7423;48.722;9.350;2022-08-21T13:25:10;27.70;73.80
14670;DHT22;7423;48.722;9.350;2022-08-21T13:27:39;27.80;68.20
14670;DHT22;7423;48.722;9.350;2022-08-21T13:30:13;27.80;70.90
14670;DHT22;7423;48.722;9.350;2022-08-21T13:32:48;27.90;74.60
14670;DHT22;7423;48.722;9.350;2022-08-21T13:35:20;27.70;74.50
14670;DHT22;7423;48.722;9.350;2022-08-21T13:37:50;27.80;69.40
14670;DHT22;7423;48.722;9.350;2022-08-21T13:43:17;28.00;60.00
14670;DHT22;7423;48.722;9.350;2022-08-21T13:45:51;27.90;64.10
14670;DHT22;7423;48.722;9.350;2022-08-21T13:48:20;27.90;68.40
14670;DHT22;7423;48.722;9.350;2022-08-21T13:50:49;27.70;70.10
14670;DHT22;7423;48.722;9.350;2022-08-21T13:55:56;27.70;73.00
14670;DHT22;7423;48.722;9.350;2022-08-21T13:58:32;27.70;74.30
14670;DHT22;7423;48.722;9.350;2022-08-21T14:01:39;27.70;72.80
14670;DHT22;7423;48.722;9.350;2022-08-21T14:06:53;27.70;75.80
14670;DHT22;7423;48.722;9.350;2022-08-21T14:12:01;27.80;74.10
14670;DHT22;7423;48.722;9.350;2022-08-21T14:14:34;27.80;74.80
14670;DHT22;7423;48.722;9.350;2022-08-21T14:17:05;27.80;70.80
14670;DHT22;7423;48.722;9.350;2022-08-21T14:19:52;27.90;68.90
14670;DHT22;7423;48.722;9.350;2022-08-21T14:27:44;28.00;68.60
14670;DHT22;7423;48.722;9.350;2022-08-21T14:30:33;28.30;71.90
14670;DHT22;7423;48.722;9.350;2022-08-21T14:33:03;28.10;69.70
14670;DHT22;7423;48.722;9.350;2022-08-21T14:35:31;28.10;73.40
14670;DHT22;7423;48.722;9.350;2022-08-21T14:37:58;28.20;67.80
14670;DHT22;7423;48.722;9.350;2022-08-21T14:40:25;28.30;67.30
14670;DHT22;7423;48.722;9.350;2022-08-21T14:42:54;28.30;66.80
14670;DHT22;7423;48.722;9.350;2022-08-21T14:45:29;28.40;68.60
14670;DHT22;7423;48.722;9.350;2022-08-21T14:47:58;28.50;68.20
14670;DHT22;7423;48.722;9.350;2022-08-21T14:50:25;28.40;70.10
14670;DHT22;7423;48.722;9.350;2022-08-21T14:52:54;28.30;67.40
14670;DHT22;7423;48.722;9.350;2022-08-21T14:55:21;28.30;65.20
14670;DHT22;7423;48.722;9.350;2022-08-21T14:57:50;28.30;69.00
14670;DHT22;7423;48.722;9.350;2022-08-21T15:00:21;28.30;70.30
14670;DHT22;7423;48.722;9.350;2022-08-21T15:03:02;28.20;70.50
14670;DHT22;7423;48.722;9.350;2022-08-21T15:05:29;28.20;71.30
14670;DHT22;7423;48.722;9.350;2022-08-21T15:07:59;28.20;72.00
14670;DHT22;7423;48.722;9.350;2022-08-21T15:10:27;28.20;72.20
14670;DHT22;7423;48.722;9.350;2022-08-21T15:12:55;28.10;72.80
14670;DHT22;7423;48.722;9.350;2022-08-21T15:15:22;28.10;72.10
14670;DHT22;7423;48.722;9.350;2022-08-21T15:17:48;28.10;72.70
14670;DHT22;7423;48.722;9.350;2022-08-21T15:20:15;28.00;73.10
14670;DHT22;7423;48.722;9.350;2022-08-21T15:22:42;27.90;70.70
14670;DHT22;7423;48.722;9.350;2022-08-21T15:25:13;27.80;71.20
14670;DHT22;7423;48.722;9.350;2022-08-21T15:27:40;27.90;71.70
14670;DHT22;7423;48.722;9.350;2022-08-21T15:30:07;28.00;69.50
14670;DHT22;7423;48.722;9.350;2022-08-21T15:32:35;28.00;71.00
14670;DHT22;7423;48.722;9.350;2022-08-21T15:35:05;28.10;72.30
14670;DHT22;7423;48.722;9.350;2022-08-21T15:37:32;28.10;70.10
14670;DHT22;7423;48.722;9.350;2022-08-21T15:39:59;28.10;68.80
14670;DHT22;7423;48.722;9.350;2022-08-21T15:42:27;28.10;69.60
14670;DHT22;7423;48.722;9.350;2022-08-21T15:44:55;28.20;69.60
14670;DHT22;7423;48.722;9.350;2022-08-21T15:47:27;28.30;69.00
14670;DHT22;7423;48.722;9.350;2022-08-21T15:49:55;28.20;70.40
14670;DHT22;7423;48.722;9.350;2022-08-21T15:52:22;28.30;68.60
14670;DHT22;7423;48.722;9.350;2022-08-21T15:54:50;28.30;70.80
14670;DHT22;7423;48.722;9.350;2022-08-21T15:57:20;28.30;71.00
14670;DHT22;7423;48.722;9.350;2022-08-21T15:59:58;28.30;70.40
14670;DHT22;7423;48.722;9.350;2022-08-21T16:02:36;28.30;71.30
14670;DHT22;7423;48.722;9.350;2022-08-21T16:05:03;28.20;71.60
14670;DHT22;7423;48.722;9.350;2022-08-21T16:07:30;28.20;72.10
14670;DHT22;7423;48.722;9.350;2022-08-21T16:09:57;28.20;72.30
14670;DHT22;7423;48.722;9.350;2022-08-21T16:12:28;28.10;72.30
14670;DHT22;7423;48.722;9.350;2022-08-21T16:15:01;28.10;72.60
14670;DHT22;7423;48.722;9.350;2022-08-21T16:17:32;28.10;73.10
14670;DHT22;7423;48.722;9.350;2022-08-21T16:20:04;28.10;69.30
14670;DHT22;7423;48.722;9.350;2022-08-21T16:22:35;28.20;71.90
14670;DHT22;7423;48.722;9.350;2022-08-21T16:25:11;28.20;72.50
14670;DHT22;7423;48.722;9.350;2022-08-21T16:27:40;28.20;72.90
14670;DHT22;7423;48.722;9.350;2022-08-21T16:30:10;28.20;72.60
14670;DHT22;7423;48.722;9.350;2022-08-21T16:32:38;28.20;70.30
14670;DHT22;7423;48.722;9.350;2022-08-21T16:35:05;28.20;70.90
14670;DHT22;7423;48.722;9.350;2022-08-21T16:37:32;28.20;71.20
14670;DHT22;7423;48.722;9.350;2022-08-21T16:39:58;28.20;70.90
14670;DHT22;7423;48.722;9.350;2022-08-21T16:42:26;28.30;71.70
14670;DHT22;7423;48.722;9.350;2022-08-21T16:44:53;28.30;71.70
14670;DHT22;7423;48.722;9.350;2022-08-21T16:47:21;28.20;72.10
14670;DHT22;7423;48.722;9.350;2022-08-21T16:49:52;28.30;72.70
14670;DHT22;7423;48.722;9.350;2022-08-21T16:52:19;28.40;72.70
14670;DHT22;7423;48.722;9.350;2022-08-21T16:54:46;28.40;71.40
14670;DHT22;7423;48.722;9.350;2022-08-21T16:57:13;28.40;72.50
14670;DHT22;7423;48.722;9.350;2022-08-21T16:59:40;28.40;72.10
14670;DHT22;7423;48.722;9.350;2022-08-21T17:02:27;28.40;72.90
14670;DHT22;7423;48.722;9.350;2022-08-21T17:04:56;28.40;73.20
14670;DHT22;7423;48.722;9.350;2022-08-21T17:07:23;28.30;72.70
14670;DHT22;7423;48.722;9.350;2022-08-21T17:09:50;28.30;72.80
14670;DHT22;7423;48.722;9.350;2022-08-21T17:12:17;28.30;73.40
14670;DHT22;7423;48.722;9.350;2022-08-21T17:14:45;28.20;72.40
14670;DHT22;7423;48.722;9.350;2022-08-21T17:17:13;28.20;72.50
14670;DHT22;7423;48.722;9.350;2022-08-21T17:19:41;28.30;72.30
14670;DHT22;7423;48.722;9.350;2022-08-21T17:22:08;28.30;72.90
14670;DHT22;7423;48.722;9.350;2022-08-21T17:24:36;28.20;73.40
14670;DHT22;7423;48.722;9.350;2022-08-21T17:27:03;28.20;74.00
14670;DHT22;7423;48.722;9.350;2022-08-21T17:29:34;28.00;74.40
14670;DHT22;7423;48.722;9.350;2022-08-21T17:32:06;28.30;74.20
14670;DHT22;7423;48.722;9.350;2022-08-21T17:34:35;28.10;74.10
14670;DHT22;7423;48.722;9.350;2022-08-21T17:37:05;28.10;74.10